Southeast Texas Regional Airport
KBPT : now visible

Airfield :











YOU CAN JOIN US ON...

 
LOGIN :

Register | Disclaimer

   EN    FR    IT 

 









Legend :    VFR   Marginal VFR   IFR   Intensive IFR   Very Intensive IFR
Visi :
Ceiling :
>= 8 km
>= 3000ft
5 to 8 km
1000 to 3000 ft
1500m to 5 km
500 to 1000 ft
800 to 1500m
200 to 500 ft
< 800m
< 200 ft
Symbols :   Thunderstorms  Fog  Heavy snow  Heavy precipitations  Wind > 20 kt






- Airport Elevation : 15 ft
- IATA code : BPT


KBPT - Southeast Texas Regional

CURRENT METAR :
  • 250653Z AUTO 10007KT 10SM CLR 21/20 A2978 RMK AO2 SLP085 T02060200

EXPIRED METARs :
  • 250553Z AUTO 11007KT 10SM CLR 20/19 A2980 RMK AO2 SLP092 60177 T02000189 10267 20183 403000183 56029
  • 250453Z AUTO 06008KT 10SM SCT055 20/19 A2982 RMK AO2 RAB18E47 SLP096 P0001 T02000189

TAF KBPT
Valid from the 25 at 06:00 until the 26 at 06:00 UTC


250520Z 2506/2606 VRB06KT P6SM SCT070 BKN090
FM251000 12006KT P6SM SCT025 SCT200
TEMPO 2510/2514 4SM -TSRA BKN025CB
FM251400 13009KT P6SM VCSH SCT025 BKN035
TEMPO 2514/2518 2SM TSRA BKN025CB BKN100
FM251800 16011KT P6SM VCSH SCT025 BKN035
FM260000 12006KT P6SM VCTS BKN035CB OVC100
KZHU FIR / North America



MET'MAP, your aeronautical weather chart ! - Copyright ORBIFLY December 2007 - Disclaimer

ORBIFLY MET'MAP TEAM :

Programming & Development : Alexandra Zaïnal
Concept & original design : Baudouin d'Aumeries
Assistance for programming : Marc-Olivier Méhu
Technical & hardware support : Manuel Goepfert

Contact : metmap@orbifly.com




SOURCES & CREDITS :

   NOAA       Earth
Advisory